Time;durP1;ratioP1;P1;durP2;ratioP2;P2;SDS_P1;SDS_P2;PMS_P1;PMS_P2;Temp;Humidity;BMP_temperature;BMP_pressure;BME280_temperature;BME280_humidity;BME280_pressure;Samples;Min_cycle;Max_cycle;Signal;HPM_P1;HPM_P2
2022/05/18 00:00:28;;;;;;;;;;;15.00;99.60;;;;;;5084348;28;19909;-77
2022/05/18 00:02:56;;;;;;;;;;;15.10;99.60;;;;;;5073290;28;19966;-76
2022/05/18 00:05:23;;;;;;;;;;;15.10;99.90;;;;;;5112368;28;19915;-78
2022/05/18 00:07:50;;;;;;;;;;;15.10;99.00;;;;;;5114442;28;19927;-78
2022/05/18 00:10:17;;;;;;;;;;;15.20;99.00;;;;;;5114576;28;19995;-76
2022/05/18 00:12:45;;;;;;;;;;;15.20;99.90;;;;;;5114483;28;19915;-80
2022/05/18 00:15:13;;;;;;;;;;;15.20;99.20;;;;;;5114436;28;19908;-77
2022/05/18 00:17:40;;;;;;;;;;;15.30;99.10;;;;;;5114114;28;19916;-76
2022/05/18 00:20:07;;;;;;;;;;;15.40;99.80;;;;;;5114381;28;19907;-77
2022/05/18 00:22:42;;;;;;;;;;;15.50;99.10;;;;;;5114222;28;19991;-76
2022/05/18 00:25:09;;;;;;;;;;;15.50;99.00;;;;;;5114352;28;19912;-80
2022/05/18 00:27:36;;;;;;;;;;;15.50;99.20;;;;;;5113963;28;19916;-79
2022/05/18 00:30:03;;;;;;;;;;;15.50;98.50;;;;;;5114202;28;19947;-76
2022/05/18 00:32:30;;;;;;;;;;;15.50;99.90;;;;;;5112772;28;19912;-76
2022/05/18 00:34:56;;;;;;;;;;;15.70;98.60;;;;;;5114168;28;19908;-77
2022/05/18 00:37:23;;;;;;;;;;;15.70;98.60;;;;;;5114121;28;19907;-77
2022/05/18 00:39:49;;;;;;;;;;;15.60;99.30;;;;;;5113482;28;20333;-78
2022/05/18 00:42:20;;;;;;;;;;;15.70;99.90;;;;;;5114038;28;19972;-77
2022/05/18 00:44:47;;;;;;;;;;;15.70;98.80;;;;;;5114078;28;19907;-77
2022/05/18 00:47:14;;;;;;;;;;;15.80;99.10;;;;;;5113699;28;19916;-76
2022/05/18 00:49:45;;;;;;;;;;;15.80;99.60;;;;;;5113704;28;19994;-76
2022/05/18 00:52:12;;;;;;;;;;;15.90;99.50;;;;;;5093065;28;19920;-76
2022/05/18 00:54:39;;;;;;;;;;;16.00;98.30;;;;;;5093422;28;20366;-81
2022/05/18 00:57:08;;;;;;;;;;;16.00;98.70;;;;;;5093566;28;19919;-84
2022/05/18 00:59:39;;;;;;;;;;;16.10;99.00;;;;;;5093204;28;19981;-81
2022/05/18 01:02:07;;;;;;;;;;;16.20;99.00;;;;;;5093264;28;20359;-84
2022/05/18 01:04:34;;;;;;;;;;;16.30;98.20;;;;;;5093268;28;19908;-78
2022/05/18 01:07:10;;;;;;;;;;;16.60;97.90;;;;;;5093105;28;20370;-83
2022/05/18 01:09:37;;;;;;;;;;;16.70;97.80;;;;;;5092968;28;19954;-76
2022/05/18 01:12:08;;;;;;;;;;;17.20;97.40;;;;;;5093059;28;19908;-76
2022/05/18 01:14:35;;;;;;;;;;;17.10;97.70;;;;;;5093124;28;19908;-76
2022/05/18 01:17:02;;;;;;;;;;;17.70;97.20;;;;;;5093289;28;19953;-76
2022/05/18 01:19:36;;;;;;;;;;;17.50;96.80;;;;;;5093134;28;20343;-77
2022/05/18 01:22:22;;;;;;;;;;;17.30;97.10;;;;;;5093363;28;19908;-78
2022/05/18 01:25:00;;;;;;;;;;;17.10;98.10;;;;;;5078904;28;19922;-77
2022/05/18 01:27:27;;;;;;;;;;;17.00;98.00;;;;;;5093177;28;19916;-77
2022/05/18 01:29:55;;;;;;;;;;;17.00;98.30;;;;;;5074244;28;19951;-77
2022/05/18 01:32:22;;;;;;;;;;;17.00;98.00;;;;;;5074852;28;20024;-78
2022/05/18 01:34:48;;;;;;;;;;;16.90;97.50;;;;;;5074847;28;19908;-77
2022/05/18 01:37:15;;;;;;;;;;;16.70;97.60;;;;;;5093029;28;19965;-77
2022/05/18 01:39:56;;;;;;;;;;;16.80;98.80;;;;;;5092738;28;19908;-76
2022/05/18 01:42:48;;;;;;;;;;;16.80;97.90;;;;;;5092958;28;20273;-78
2022/05/18 01:45:15;;;;;;;;;;;16.90;99.00;;;;;;5061879;28;19914;-77
2022/05/18 01:47:42;;;;;;;;;;;16.90;97.70;;;;;;5092543;28;19916;-78
2022/05/18 01:50:12;;;;;;;;;;;16.80;97.50;;;;;;5096203;28;19912;-79
2022/05/18 01:52:39;;;;;;;;;;;16.80;98.30;;;;;;5113323;28;20389;-78
2022/05/18 01:55:07;;;;;;;;;;;16.90;99.30;;;;;;5113334;28;19912;-80
2022/05/18 01:57:35;;;;;;;;;;;16.90;98.60;;;;;;5113047;28;19933;-77
2022/05/18 02:00:03;;;;;;;;;;;16.90;98.40;;;;;;5113085;28;20132;-78
2022/05/18 02:02:30;;;;;;;;;;;17.00;97.80;;;;;;5112962;28;20384;-76
2022/05/18 02:04:57;;;;;;;;;;;16.90;97.90;;;;;;5114962;28;19907;-76
2022/05/18 02:07:23;;;;;;;;;;;16.90;97.80;;;;;;5092395;28;19921;-80
2022/05/18 02:09:50;;;;;;;;;;;17.00;97.60;;;;;;5078557;28;20018;-79
2022/05/18 02:12:17;;;;;;;;;;;17.00;97.90;;;;;;5116853;28;19955;-82
2022/05/18 02:14:43;;;;;;;;;;;17.00;97.80;;;;;;5116823;28;19908;-78
2022/05/18 02:17:10;;;;;;;;;;;17.00;98.10;;;;;;5116690;28;19918;-79
2022/05/18 02:19:37;;;;;;;;;;;17.00;97.50;;;;;;5116885;28;19915;-78
2022/05/18 02:22:04;;;;;;;;;;;17.10;98.80;;;;;;5116661;28;19914;-79
2022/05/18 02:24:30;;;;;;;;;;;17.10;98.20;;;;;;5116483;28;19911;-79
2022/05/18 02:26:57;;;;;;;;;;;17.10;97.50;;;;;;5116491;28;19969;-79
2022/05/18 02:29:24;;;;;;;;;;;17.10;97.90;;;;;;5116527;28;19908;-77
2022/05/18 02:31:50;;;;;;;;;;;17.10;98.60;;;;;;5116061;28;19916;-77
2022/05/18 02:34:17;;;;;;;;;;;17.20;98.10;;;;;;5116301;28;20274;-78
2022/05/18 02:36:44;;;;;;;;;;;17.30;98.40;;;;;;5116286;28;19945;-78
2022/05/18 02:39:10;;;;;;;;;;;17.30;97.90;;;;;;5115992;28;20393;-78
2022/05/18 02:41:37;;;;;;;;;;;17.30;98.00;;;;;;5115701;28;19907;-78
2022/05/18 02:44:04;;;;;;;;;;;17.40;97.40;;;;;;5116217;28;19907;-78
2022/05/18 02:46:31;;;;;;;;;;;17.40;97.70;;;;;;5116047;28;19916;-76
2022/05/18 02:48:57;;;;;;;;;;;17.30;98.10;;;;;;5115978;28;19912;-77
2022/05/18 02:51:27;;;;;;;;;;;17.40;98.10;;;;;;5116076;28;20361;-77
2022/05/18 02:53:53;;;;;;;;;;;17.40;97.20;;;;;;5115693;28;19908;-77
2022/05/18 02:56:25;;;;;;;;;;;17.50;97.50;;;;;;5115661;28;19911;-76
2022/05/18 02:58:53;;;;;;;;;;;17.50;96.70;;;;;;5115949;28;19961;-78
2022/05/18 03:01:21;;;;;;;;;;;17.50;97.00;;;;;;5115854;28;19909;-76
2022/05/18 03:03:48;;;;;;;;;;;17.40;97.20;;;;;;5115427;28;20007;-77
2022/05/18 03:06:16;;;;;;;;;;;17.50;96.70;;;;;;5115692;28;19915;-78
2022/05/18 03:08:44;;;;;;;;;;;17.50;96.90;;;;;;5115509;28;20377;-79
2022/05/18 03:11:11;;;;;;;;;;;17.70;96.30;;;;;;5115687;28;20311;-78
2022/05/18 03:13:38;;;;;;;;;;;17.70;96.40;;;;;;5115300;28;19908;-76
2022/05/18 03:16:05;;;;;;;;;;;17.70;97.00;;;;;;5114968;28;19915;-77
2022/05/18 03:18:32;;;;;;;;;;;17.70;96.30;;;;;;5115301;28;19908;-77
2022/05/18 03:23:44;;;;;;;;;;;17.70;96.40;;;;;;5115679;28;19914;-78
2022/05/18 03:26:12;;;;;;;;;;;17.70;95.90;;;;;;5106590;28;19917;-78
2022/05/18 03:28:40;;;;;;;;;;;17.70;95.80;;;;;;5085544;28;20350;-78
2022/05/18 03:31:07;;;;;;;;;;;17.80;95.60;;;;;;5094164;28;19920;-76
2022/05/18 03:33:34;;;;;;;;;;;17.80;95.40;;;;;;5101918;28;19907;-76
2022/05/18 03:36:01;;;;;;;;;;;17.80;96.00;;;;;;5115096;28;19911;-78
2022/05/18 03:38:27;;;;;;;;;;;17.80;95.60;;;;;;5114899;28;19907;-77
2022/05/18 03:40:54;;;;;;;;;;;18.00;95.40;;;;;;5114872;28;19908;-77
2022/05/18 03:43:21;;;;;;;;;;;18.10;95.10;;;;;;5115055;28;19912;-77
2022/05/18 03:45:48;;;;;;;;;;;18.00;94.60;;;;;;5114524;28;19909;-76
2022/05/18 03:48:16;;;;;;;;;;;18.00;95.60;;;;;;5114629;28;19916;-76
2022/05/18 03:50:45;;;;;;;;;;;18.00;95.90;;;;;;5114676;28;20007;-76
2022/05/18 03:53:12;;;;;;;;;;;18.00;95.50;;;;;;5114731;28;19908;-76
2022/05/18 03:55:39;;;;;;;;;;;18.00;95.80;;;;;;5114555;28;19907;-79
2022/05/18 03:58:06;;;;;;;;;;;18.00;95.20;;;;;;5114614;28;19919;-79
2022/05/18 04:00:33;;;;;;;;;;;18.00;95.70;;;;;;5114389;28;19915;-78
2022/05/18 04:03:01;;;;;;;;;;;18.00;95.00;;;;;;5114262;28;19938;-78
2022/05/18 04:05:28;;;;;;;;;;;18.00;95.20;;;;;;5114329;28;20065;-77
2022/05/18 04:07:54;;;;;;;;;;;18.10;95.60;;;;;;5114064;28;19916;-77
2022/05/18 04:10:21;;;;;;;;;;;18.10;95.90;;;;;;5114408;28;19930;-78
2022/05/18 04:12:48;;;;;;;;;;;18.00;96.20;;;;;;5114328;28;20255;-76
2022/05/18 04:15:16;;;;;;;;;;;18.00;96.20;;;;;;5114119;28;19908;-74
2022/05/18 04:17:44;;;;;;;;;;;17.90;95.80;;;;;;5113752;28;20350;-74
2022/05/18 04:20:12;;;;;;;;;;;18.00;95.40;;;;;;5114261;28;19922;-75
2022/05/18 04:22:39;;;;;;;;;;;18.00;95.30;;;;;;5114406;28;19907;-75
2022/05/18 04:25:06;;;;;;;;;;;18.10;95.60;;;;;;5114355;28;19912;-75
2022/05/18 04:27:33;;;;;;;;;;;18.10;95.80;;;;;;5113372;28;19916;-75
2022/05/18 04:29:59;;;;;;;;;;;18.00;96.00;;;;;;5114239;28;20355;-75
2022/05/18 04:32:26;;;;;;;;;;;18.10;95.90;;;;;;5114056;28;19911;-75
2022/05/18 04:34:53;;;;;;;;;;;18.10;95.60;;;;;;5114286;28;19915;-75
2022/05/18 04:37:19;;;;;;;;;;;18.10;96.30;;;;;;5114553;28;20289;-75
2022/05/18 04:39:46;;;;;;;;;;;18.10;96.10;;;;;;5113963;28;19907;-76
2022/05/18 04:42:14;;;;;;;;;;;18.10;96.20;;;;;;5114088;28;20354;-75
2022/05/18 04:44:41;;;;;;;;;;;18.00;96.40;;;;;;5114157;28;19911;-75
2022/05/18 04:47:07;;;;;;;;;;;18.00;96.20;;;;;;5113733;28;20021;-75
2022/05/18 04:49:34;;;;;;;;;;;17.90;95.90;;;;;;5113656;28;20277;-74
2022/05/18 04:52:01;;;;;;;;;;;17.80;96.30;;;;;;5113785;28;20382;-74
2022/05/18 04:54:28;;;;;;;;;;;17.90;97.00;;;;;;5113948;28;19977;-74
2022/05/18 04:56:54;;;;;;;;;;;17.90;95.90;;;;;;5114046;28;19914;-74
2022/05/18 04:59:21;;;;;;;;;;;17.90;96.20;;;;;;5113918;28;19908;-75
2022/05/18 05:01:48;;;;;;;;;;;17.90;96.00;;;;;;5113415;28;19916;-75
2022/05/18 05:04:15;;;;;;;;;;;18.00;95.90;;;;;;5113696;28;20286;-76
2022/05/18 05:06:43;;;;;;;;;;;18.10;95.60;;;;;;5113838;28;19912;-75
2022/05/18 05:09:10;;;;;;;;;;;18.00;96.00;;;;;;5113755;28;19947;-75
2022/05/18 05:11:37;;;;;;;;;;;18.00;95.80;;;;;;5113290;28;20308;-76
2022/05/18 05:14:05;;;;;;;;;;;18.00;96.20;;;;;;5113772;28;20271;-75
2022/05/18 05:16:32;;;;;;;;;;;18.00;96.10;;;;;;5113556;28;19908;-75
2022/05/18 05:18:59;;;;;;;;;;;18.00;96.10;;;;;;5113454;28;19931;-76
2022/05/18 05:21:26;;;;;;;;;;;18.00;97.00;;;;;;5113121;28;20343;-76
2022/05/18 05:23:52;;;;;;;;;;;18.00;96.60;;;;;;5113361;28;19952;-76
2022/05/18 05:26:19;;;;;;;;;;;18.10;96.30;;;;;;5113479;28;19914;-76
2022/05/18 05:28:45;;;;;;;;;;;18.20;96.40;;;;;;5114020;28;20310;-75
2022/05/18 05:31:12;;;;;;;;;;;18.20;96.30;;;;;;5113477;28;20357;-75
2022/05/18 05:33:40;;;;;;;;;;;18.20;97.00;;;;;;5113357;28;20313;-75
2022/05/18 05:36:07;;;;;;;;;;;18.10;96.50;;;;;;5113661;28;19912;-75
2022/05/18 05:38:33;;;;;;;;;;;18.10;96.70;;;;;;5114782;28;19915;-75
2022/05/18 05:41:01;;;;;;;;;;;18.00;96.70;;;;;;5117519;28;19920;-74
2022/05/18 05:43:29;;;;;;;;;;;18.10;96.80;;;;;;5117442;28;19908;-75
2022/05/18 05:45:57;;;;;;;;;;;18.10;96.20;;;;;;5117205;28;19953;-74
2022/05/18 05:48:24;;;;;;;;;;;18.00;96.50;;;;;;5117331;28;19947;-75
2022/05/18 05:50:51;;;;;;;;;;;18.00;96.70;;;;;;5117022;28;19920;-75
2022/05/18 05:53:18;;;;;;;;;;;17.90;96.60;;;;;;5117280;28;19911;-75
2022/05/18 05:55:44;;;;;;;;;;;17.90;96.40;;;;;;5116835;28;19908;-75
2022/05/18 05:58:11;;;;;;;;;;;17.90;96.80;;;;;;5117155;28;19942;-75
2022/05/18 06:00:38;;;;;;;;;;;17.80;96.80;;;;;;5117072;28;19908;-75
2022/05/18 06:03:05;;;;;;;;;;;17.80;96.90;;;;;;5117061;28;19908;-76
2022/05/18 06:05:32;;;;;;;;;;;17.70;97.30;;;;;;5116826;28;19908;-74
2022/05/18 06:07:58;;;;;;;;;;;17.60;96.80;;;;;;5116900;28;20293;-75
2022/05/18 06:10:25;;;;;;;;;;;17.60;96.30;;;;;;5117195;28;19933;-75
2022/05/18 06:12:52;;;;;;;;;;;17.50;96.40;;;;;;5115444;28;19960;-75
2022/05/18 06:15:18;;;;;;;;;;;17.50;96.20;;;;;;5116840;28;19915;-75
2022/05/18 06:17:45;;;;;;;;;;;17.50;96.00;;;;;;5116523;28;20000;-74
2022/05/18 06:20:12;;;;;;;;;;;17.50;96.30;;;;;;5116647;28;19907;-75
2022/05/18 06:22:39;;;;;;;;;;;17.50;96.10;;;;;;5116703;28;20285;-74
2022/05/18 06:25:06;;;;;;;;;;;17.40;96.40;;;;;;5116465;28;20280;-75
2022/05/18 06:27:32;;;;;;;;;;;17.40;96.70;;;;;;5116179;28;19922;-75
2022/05/18 06:29:59;;;;;;;;;;;17.40;96.10;;;;;;5116715;28;19915;-76
2022/05/18 06:32:26;;;;;;;;;;;17.40;96.10;;;;;;5115841;28;19912;-77
2022/05/18 06:34:52;;;;;;;;;;;17.40;96.10;;;;;;5116341;28;20267;-74
2022/05/18 06:37:19;;;;;;;;;;;17.30;95.80;;;;;;5116409;28;19915;-74
2022/05/18 06:39:45;;;;;;;;;;;17.30;95.90;;;;;;5116100;28;20007;-75
2022/05/18 06:42:12;;;;;;;;;;;17.30;95.70;;;;;;5116308;28;19908;-74
2022/05/18 06:44:39;;;;;;;;;;;17.30;96.00;;;;;;5116279;28;19907;-76
2022/05/18 06:47:06;;;;;;;;;;;17.20;96.10;;;;;;5115970;28;19920;-75
2022/05/18 06:49:32;;;;;;;;;;;17.20;96.00;;;;;;5115406;28;19908;-75
2022/05/18 06:51:59;;;;;;;;;;;17.10;96.40;;;;;;5113390;28;19972;-75
2022/05/18 06:54:26;;;;;;;;;;;17.10;96.30;;;;;;5114146;28;19919;-74
2022/05/18 06:56:52;;;;;;;;;;;17.10;96.30;;;;;;5113957;28;19914;-76
2022/05/18 06:59:19;;;;;;;;;;;17.10;95.90;;;;;;5113985;28;20003;-76
2022/05/18 07:01:46;;;;;;;;;;;17.10;96.10;;;;;;5113393;28;19939;-74
2022/05/18 07:04:13;;;;;;;;;;;17.10;96.00;;;;;;5113327;28;19970;-76
2022/05/18 07:06:41;;;;;;;;;;;17.00;96.40;;;;;;5113817;28;19994;-74
2022/05/18 07:09:09;;;;;;;;;;;16.90;96.60;;;;;;5113710;28;20075;-74
2022/05/18 07:11:36;;;;;;;;;;;16.90;96.30;;;;;;5113411;28;19919;-75
2022/05/18 07:14:05;;;;;;;;;;;16.90;96.30;;;;;;5113503;28;19918;-76
2022/05/18 07:16:32;;;;;;;;;;;16.90;96.30;;;;;;5113177;28;19915;-76
2022/05/18 07:18:59;;;;;;;;;;;16.90;96.30;;;;;;5113125;28;20004;-75
2022/05/18 07:21:25;;;;;;;;;;;16.80;96.90;;;;;;5113489;28;19907;-76
2022/05/18 07:23:52;;;;;;;;;;;16.90;96.80;;;;;;5113119;28;19988;-76
2022/05/18 07:26:20;;;;;;;;;;;16.70;97.10;;;;;;5113254;28;19915;-77
2022/05/18 07:28:47;;;;;;;;;;;16.70;96.50;;;;;;5113182;28;19911;-79
2022/05/18 07:31:14;;;;;;;;;;;16.70;96.30;;;;;;5112682;28;19969;-77
2022/05/18 07:33:41;;;;;;;;;;;16.80;96.30;;;;;;5112877;28;20358;-76
2022/05/18 07:36:07;;;;;;;;;;;16.70;96.30;;;;;;5113177;28;19915;-76
2022/05/18 07:38:35;;;;;;;;;;;16.70;96.60;;;;;;5113001;28;20320;-76
2022/05/18 07:41:02;;;;;;;;;;;16.70;96.90;;;;;;5113099;28;19908;-76
2022/05/18 07:43:29;;;;;;;;;;;16.70;96.60;;;;;;5112543;28;19934;-78
2022/05/18 07:45:56;;;;;;;;;;;16.60;96.90;;;;;;5112614;27;20422;-76
2022/05/18 07:48:23;;;;;;;;;;;16.50;98.10;;;;;;5112908;28;19916;-78
2022/05/18 07:50:50;;;;;;;;;;;16.50;98.30;;;;;;5112558;28;19919;-79
2022/05/18 07:53:16;;;;;;;;;;;16.30;98.40;;;;;;5112988;28;19954;-77
2022/05/18 07:55:43;;;;;;;;;;;16.20;98.30;;;;;;5112632;28;19915;-80
2022/05/18 07:58:11;;;;;;;;;;;16.20;99.10;;;;;;5112159;28;19912;-77
2022/05/18 08:00:38;;;;;;;;;;;16.10;99.70;;;;;;5111259;28;19908;-81
2022/05/18 08:03:07;;;;;;;;;;;16.00;99.00;;;;;;5112658;28;19908;-76
2022/05/18 08:05:34;;;;;;;;;;;16.00;99.60;;;;;;5112349;28;19954;-76
2022/05/18 08:08:05;;;;;;;;;;;16.00;99.90;;;;;;5112315;28;19916;-81
2022/05/18 08:16:01;;;;;;;;;;;16.10;98.50;;;;;;5112467;28;19915;-76
2022/05/18 08:18:29;;;;;;;;;;;16.10;98.20;;;;;;5112288;28;19954;-79
2022/05/18 08:20:56;;;;;;;;;;;16.10;98.40;;;;;;5112254;28;20359;-77
2022/05/18 08:23:23;;;;;;;;;;;16.10;98.80;;;;;;5111846;28;19953;-78
2022/05/18 08:25:50;;;;;;;;;;;16.10;98.40;;;;;;5111927;28;19962;-78
2022/05/18 08:28:17;;;;;;;;;;;16.00;98.30;;;;;;5112129;28;20366;-79
2022/05/18 08:30:44;;;;;;;;;;;16.00;98.40;;;;;;5112110;28;20326;-76
2022/05/18 08:33:11;;;;;;;;;;;16.00;98.80;;;;;;5112269;28;19919;-78
2022/05/18 08:35:39;;;;;;;;;;;16.00;98.80;;;;;;5111612;28;19915;-77
2022/05/18 08:38:07;;;;;;;;;;;15.90;98.90;;;;;;5112892;28;19923;-77
2022/05/18 08:40:59;;;;;;;;;;;15.90;99.90;;;;;;5112279;28;20399;-78
2022/05/18 08:43:28;;;;;;;;;;;15.90;99.10;;;;;;5109199;28;19938;-77
2022/05/18 08:46:00;;;;;;;;;;;15.80;99.10;;;;;;5111845;28;19919;-78
2022/05/18 08:48:33;;;;;;;;;;;15.90;99.90;;;;;;5111543;28;19923;-78
2022/05/18 08:51:05;;;;;;;;;;;15.80;98.90;;;;;;5111552;28;19930;-78
2022/05/18 08:53:41;;;;;;;;;;;15.80;98.50;;;;;;5115400;28;20365;-79
2022/05/18 08:56:12;;;;;;;;;;;15.80;98.70;;;;;;5112209;28;20331;-80
2022/05/18 08:58:44;;;;;;;;;;;15.80;99.30;;;;;;5111941;28;19908;-80
2022/05/18 09:01:14;;;;;;;;;;;15.80;98.70;;;;;;5112519;28;20345;-79
2022/05/18 09:03:44;;;;;;;;;;;15.90;98.90;;;;;;5111295;28;20370;-80
2022/05/18 09:06:33;;;;;;;;;;;15.90;99.50;;;;;;5113127;28;20247;-80
2022/05/18 09:11:49;;;;;;;;;;;15.80;98.60;;;;;;5113906;28;19915;-80
2022/05/18 09:14:21;;;;;;;;;;;15.80;98.50;;;;;;5118894;28;19960;-79
2022/05/18 09:17:01;;;;;;;;;;;15.80;98.30;;;;;;5120461;28;20269;-79
2022/05/18 09:19:30;;;;;;;;;;;15.70;98.60;;;;;;5120587;28;19908;-80
2022/05/18 09:22:24;;;;;;;;;;;15.70;98.60;;;;;;5120443;28;19915;-81
2022/05/18 09:24:54;;;;;;;;;;;15.70;98.70;;;;;;5120289;28;19991;-79
2022/05/18 09:27:34;;;;;;;;;;;15.70;99.20;;;;;;5120338;28;19927;-80
2022/05/18 09:30:09;;;;;;;;;;;15.60;99.30;;;;;;5118854;28;19990;-76
2022/05/18 09:32:54;;;;;;;;;;;15.70;99.20;;;;;;5120363;28;19915;-81
2022/05/18 09:35:23;;;;;;;;;;;15.70;99.10;;;;;;5120421;27;20230;-78
2022/05/18 09:38:01;;;;;;;;;;;15.60;99.70;;;;;;5119844;28;20296;-81
2022/05/18 09:40:34;;;;;;;;;;;15.70;99.50;;;;;;5120146;28;19908;-79
2022/05/18 09:43:16;;;;;;;;;;;15.70;98.60;;;;;;5120078;28;20354;-76
2022/05/18 09:45:45;;;;;;;;;;;15.70;98.70;;;;;;5120250;28;20274;-76
2022/05/18 09:48:17;;;;;;;;;;;15.70;98.40;;;;;;5120054;28;20358;-76
2022/05/18 09:50:45;;;;;;;;;;;15.70;98.30;;;;;;5119820;28;20366;-77
2022/05/18 09:53:13;;;;;;;;;;;15.70;98.40;;;;;;5120153;28;19908;-76
2022/05/18 09:55:41;;;;;;;;;;;15.70;98.40;;;;;;5119918;28;19912;-76
2022/05/18 09:58:10;;;;;;;;;;;15.70;98.50;;;;;;5119931;28;19915;-78
2022/05/18 10:00:37;;;;;;;;;;;15.70;98.80;;;;;;5119805;28;19912;-80
2022/05/18 10:08:46;;;;;;;;;;;15.60;99.20;;;;;;5077111;28;20406;-77
2022/05/18 10:11:18;;;;;;;;;;;15.50;98.80;;;;;;5077020;28;19915;-81
2022/05/18 10:14:01;;;;;;;;;;;15.50;99.10;;;;;;5076655;28;19909;-77
2022/05/18 10:16:39;;;;;;;;;;;15.50;98.70;;;;;;5075984;28;19908;-82
2022/05/18 10:19:12;;;;;;;;;;;15.50;98.80;;;;;;5077068;28;19959;-80
2022/05/18 10:22:17;;;;;;;;;;;15.50;98.80;;;;;;5109271;28;19909;-80
2022/05/18 10:24:49;;;;;;;;;;;15.50;98.30;;;;;;5052224;28;19909;-76
2022/05/18 10:27:15;;;;;;;;;;;15.40;98.00;;;;;;5051247;28;19913;-79
2022/05/18 10:29:44;;;;;;;;;;;15.40;97.90;;;;;;5062164;28;19909;-80
2022/05/18 10:32:12;;;;;;;;;;;15.40;97.70;;;;;;5105703;28;19990;-81
2022/05/18 10:34:43;;;;;;;;;;;15.40;97.50;;;;;;5073604;28;19961;-80
2022/05/18 10:37:12;;;;;;;;;;;15.40;97.00;;;;;;5073720;28;19916;-77
2022/05/18 10:39:41;;;;;;;;;;;15.40;96.70;;;;;;5073199;28;19908;-80
2022/05/18 10:42:15;;;;;;;;;;;15.50;97.40;;;;;;5073184;28;20304;-79
2022/05/18 10:44:42;;;;;;;;;;;15.40;96.70;;;;;;5073376;28;19915;-81
2022/05/18 10:47:20;;;;;;;;;;;15.40;97.10;;;;;;5072754;28;19978;-82
2022/05/18 10:49:48;;;;;;;;;;;15.40;96.60;;;;;;5073160;28;19912;-81
2022/05/18 10:52:18;;;;;;;;;;;15.30;96.90;;;;;;5073323;28;19950;-79
2022/05/18 10:54:54;;;;;;;;;;;15.30;97.20;;;;;;5072705;28;19912;-80
2022/05/18 10:57:27;;;;;;;;;;;15.30;97.30;;;;;;5073338;28;19917;-80
2022/05/18 11:00:11;;;;;;;;;;;15.30;98.00;;;;;;5072987;28;20416;-80
2022/05/18 11:02:41;;;;;;;;;;;15.20;97.90;;;;;;5073390;28;20391;-81
2022/05/18 11:05:23;;;;;;;;;;;15.20;98.10;;;;;;5073240;28;20017;-80
2022/05/18 11:07:50;;;;;;;;;;;15.10;98.40;;;;;;5072598;28;20367;-78
2022/05/18 11:10:16;;;;;;;;;;;15.10;98.20;;;;;;5072974;28;20003;-81
2022/05/18 11:12:53;;;;;;;;;;;15.10;98.10;;;;;;5073105;28;19908;-78
2022/05/18 11:15:28;;;;;;;;;;;15.00;98.10;;;;;;5073092;28;20003;-78
2022/05/18 11:18:05;;;;;;;;;;;15.00;98.40;;;;;;5072835;28;20012;-80
2022/05/18 11:20:44;;;;;;;;;;;15.00;98.30;;;;;;5072552;28;20365;-80
2022/05/18 11:23:19;;;;;;;;;;;14.90;99.30;;;;;;5073122;28;19916;-80
2022/05/18 11:25:48;;;;;;;;;;;14.90;98.00;;;;;;5072779;28;20029;-79
2022/05/18 11:28:29;;;;;;;;;;;14.90;98.40;;;;;;5072783;28;19920;-78
2022/05/18 11:31:04;;;;;;;;;;;14.90;98.00;;;;;;5072656;28;20057;-77
2022/05/18 11:33:51;;;;;;;;;;;14.90;98.00;;;;;;5072235;28;19920;-77
2022/05/18 11:36:23;;;;;;;;;;;14.90;98.00;;;;;;5072489;28;19908;-77
2022/05/18 11:39:02;;;;;;;;;;;14.80;98.20;;;;;;5072714;28;19913;-75
2022/05/18 11:41:38;;;;;;;;;;;14.80;98.60;;;;;;5072670;28;19909;-77
2022/05/18 11:44:05;;;;;;;;;;;14.70;98.30;;;;;;5072445;28;19961;-77
2022/05/18 11:46:44;;;;;;;;;;;14.70;98.80;;;;;;5072036;28;19908;-77
2022/05/18 11:49:16;;;;;;;;;;;14.70;98.80;;;;;;5072448;28;19931;-75
2022/05/18 11:51:52;;;;;;;;;;;14.70;98.90;;;;;;5071786;28;20295;-75
2022/05/18 11:54:21;;;;;;;;;;;14.70;99.10;;;;;;5072232;28;19920;-76
2022/05/18 11:56:51;;;;;;;;;;;14.60;99.90;;;;;;5072425;28;19919;-76
2022/05/18 11:59:45;;;;;;;;;;;14.60;99.70;;;;;;5071790;28;19912;-76
2022/05/18 12:02:14;;;;;;;;;;;14.60;99.90;;;;;;5072112;28;19916;-76
2022/05/18 12:04:41;;;;;;;;;;;14.60;99.90;;;;;;5072128;28;19935;-77
2022/05/18 12:07:29;;;;;;;;;;;14.60;99.90;;;;;;5071399;28;19913;-76
2022/05/18 12:09:55;;;;;;;;;;;14.60;99.90;;;;;;5071957;28;19916;-76
2022/05/18 12:12:25;;;;;;;;;;;14.50;99.90;;;;;;5071590;28;19999;-76
2022/05/18 12:15:14;;;;;;;;;;;14.50;99.90;;;;;;5070565;28;19912;-76
2022/05/18 12:18:03;;;;;;;;;;;14.50;99.90;;;;;;5071526;28;19916;-77
2022/05/18 12:20:46;;;;;;;;;;;14.40;99.90;;;;;;5070362;28;20326;-76
2022/05/18 12:23:15;;;;;;;;;;;14.40;99.90;;;;;;5071704;28;19935;-74
2022/05/18 12:25:42;;;;;;;;;;;14.40;99.90;;;;;;5071403;28;19916;-78
2022/05/18 12:28:11;;;;;;;;;;;14.30;99.90;;;;;;5070678;28;20359;-77
2022/05/18 12:30:39;;;;;;;;;;;14.20;99.90;;;;;;5071467;28;20042;-79
2022/05/18 12:33:07;;;;;;;;;;;14.20;99.90;;;;;;5071638;28;20144;-77
2022/05/18 12:35:35;;;;;;;;;;;14.20;99.90;;;;;;5071126;28;20283;-76
2022/05/18 12:38:05;;;;;;;;;;;14.20;99.90;;;;;;5071539;28;20260;-78
2022/05/18 12:40:49;;;;;;;;;;;14.20;99.90;;;;;;5071128;28;19908;-76
2022/05/18 12:43:21;;;;;;;;;;;14.10;99.90;;;;;;5071108;28;19909;-76
2022/05/18 12:45:48;;;;;;;;;;;14.20;99.90;;;;;;5071203;28;19912;-78
2022/05/18 12:48:24;;;;;;;;;;;14.10;99.90;;;;;;5070602;28;19931;-78
2022/05/18 12:50:59;;;;;;;;;;;14.10;99.90;;;;;;5071100;28;19924;-77
2022/05/18 12:53:31;;;;;;;;;;;14.10;99.90;;;;;;5071547;28;20281;-77
2022/05/18 12:56:00;;;;;;;;;;;14.10;99.90;;;;;;5071767;28;19909;-79
2022/05/18 12:58:31;;;;;;;;;;;14.00;99.90;;;;;;5070524;28;19919;-78
2022/05/18 13:01:09;;;;;;;;;;;14.10;99.90;;;;;;5071173;28;19912;-77
2022/05/18 13:03:41;;;;;;;;;;;14.00;99.90;;;;;;5070792;28;19912;-79
2022/05/18 13:06:16;;;;;;;;;;;14.00;99.90;;;;;;5070811;28;19999;-78
2022/05/18 13:08:54;;;;;;;;;;;14.00;99.90;;;;;;5071026;28;19975;-76
2022/05/18 13:11:21;;;;;;;;;;;13.90;99.80;;;;;;5071160;28;19923;-78
2022/05/18 13:13:56;;;;;;;;;;;13.90;99.90;;;;;;5070311;28;19913;-80
2022/05/18 13:16:38;;;;;;;;;;;13.80;99.90;;;;;;5071123;28;20057;-77
2022/05/18 13:19:14;;;;;;;;;;;13.80;99.90;;;;;;5070706;28;20001;-77
2022/05/18 13:21:41;;;;;;;;;;;13.80;99.90;;;;;;5070929;28;19965;-76
2022/05/18 13:24:12;;;;;;;;;;;13.80;99.90;;;;;;5071272;28;19908;-78
2022/05/18 13:26:48;;;;;;;;;;;13.80;99.60;;;;;;5070919;28;19942;-79
2022/05/18 13:29:27;;;;;;;;;;;13.80;99.90;;;;;;5070320;28;20085;-78
2022/05/18 13:32:01;;;;;;;;;;;13.80;99.90;;;;;;5070653;28;20377;-79
2022/05/18 13:34:37;;;;;;;;;;;13.80;99.60;;;;;;5070775;28;19912;-79
2022/05/18 13:37:05;;;;;;;;;;;13.70;99.40;;;;;;5070917;28;19912;-77
2022/05/18 13:39:43;;;;;;;;;;;13.70;99.60;;;;;;5070369;28;19916;-79
2022/05/18 13:42:11;;;;;;;;;;;13.60;99.80;;;;;;5070780;28;20306;-79
2022/05/18 13:44:38;;;;;;;;;;;13.60;99.90;;;;;;5070859;28;20371;-79
2022/05/18 13:47:05;;;;;;;;;;;13.70;99.90;;;;;;5070527;28;19912;-79
2022/05/18 13:49:38;;;;;;;;;;;13.60;99.90;;;;;;5070663;28;19919;-78
2022/05/18 13:52:07;;;;;;;;;;;13.70;99.90;;;;;;5070742;28;20352;-77
2022/05/18 13:54:37;;;;;;;;;;;13.60;99.60;;;;;;5070810;28;20341;-79
2022/05/18 13:57:05;;;;;;;;;;;13.60;99.90;;;;;;5070765;28;19916;-79
2022/05/18 13:59:33;;;;;;;;;;;13.60;99.90;;;;;;5071263;28;19969;-78
2022/05/18 14:02:02;;;;;;;;;;;13.60;99.90;;;;;;5074509;28;20438;-78
2022/05/18 14:04:39;;;;;;;;;;;13.60;99.90;;;;;;5074386;28;19915;-79
2022/05/18 14:07:06;;;;;;;;;;;13.60;99.90;;;;;;5074363;28;20414;-79
2022/05/18 14:09:41;;;;;;;;;;;13.60;99.90;;;;;;5074229;28;19912;-79
2022/05/18 14:12:19;;;;;;;;;;;13.60;99.90;;;;;;5074135;28;19908;-81
2022/05/18 14:14:50;;;;;;;;;;;13.60;99.90;;;;;;5074169;28;19917;-79
2022/05/18 14:17:20;;;;;;;;;;;13.50;99.90;;;;;;5074231;28;20325;-79
2022/05/18 14:19:52;;;;;;;;;;;13.40;99.90;;;;;;5073984;28;19913;-79
2022/05/18 14:22:24;;;;;;;;;;;13.40;99.90;;;;;;5074239;28;19994;-75
2022/05/18 14:24:54;;;;;;;;;;;13.30;99.90;;;;;;5073775;28;19912;-77
2022/05/18 14:27:31;;;;;;;;;;;13.30;99.90;;;;;;5073846;28;20287;-80
2022/05/18 14:30:06;;;;;;;;;;;13.30;99.90;;;;;;5073803;28;19935;-78
2022/05/18 14:32:44;;;;;;;;;;;13.30;99.90;;;;;;5074027;28;19909;-79
2022/05/18 14:35:12;;;;;;;;;;;13.30;99.90;;;;;;5074026;28;19919;-77
2022/05/18 14:38:01;;;;;;;;;;;13.30;99.90;;;;;;5073278;28;19912;-78
2022/05/18 14:40:31;;;;;;;;;;;13.30;99.90;;;;;;5073709;28;20303;-79
2022/05/18 14:42:58;;;;;;;;;;;13.30;99.90;;;;;;5073874;28;19916;-76
2022/05/18 14:45:27;;;;;;;;;;;13.30;99.90;;;;;;5073778;28;19913;-78
2022/05/18 14:48:13;;;;;;;;;;;13.20;99.90;;;;;;5073421;28;20008;-78